Terminal Aerodrome Forecast
Issued by NWS

Home | Current Version | Previous Version | Graphics & Text | Print | Product List | Glossary On
Versions: 1 2 3 4 5 6 7 8 9 10 11 12 13 14 15 16 17 18 19 20 21 22 23 24 25 26 27 28 29 30
707
FTUS43 KICT 270630 AAA
TAFHUT
TAF AMD
KHUT 270630Z 2707/2806 03012KT P6SM OVC007
      TEMPO 2707/2709 6SM -SHRA SCT007 OVC035
     FM270900 01010KT 5SM BR SCT003 OVC005
     FM271500 36009KT P6SM BKN009
     FM271700 36009KT P6SM BKN015
     FM272000 01007KT P6SM SCT025=

USA.gov is the U.S. government's official web portal to all federal, state and local government web resources and services.